createdAt,value
2023-02-19T00:02:11.904Z,55.70
2023-02-19T00:04:42.974Z,53.50
2023-02-19T00:07:09.749Z,57.40
2023-02-19T00:09:43.197Z,59.40
2023-02-19T00:12:12.471Z,59.00
2023-02-19T00:14:39.292Z,56.40
2023-02-19T00:17:06.166Z,62.20
2023-02-19T00:19:33.195Z,56.10
2023-02-19T00:22:00.191Z,62.80
2023-02-19T00:24:27.196Z,54.30
2023-02-19T00:26:54.017Z,53.60
2023-02-19T00:29:21.477Z,56.60
2023-02-19T00:31:48.393Z,56.30
2023-02-19T00:34:15.512Z,55.40
2023-02-19T00:36:43.539Z,54.90
2023-02-19T00:39:13.482Z,54.00
2023-02-19T00:41:41.368Z,57.50
2023-02-19T00:44:10.735Z,57.60
2023-02-19T00:46:46.859Z,53.50
2023-02-19T00:49:19.614Z,56.10
2023-02-19T00:51:49.650Z,55.40
2023-02-19T00:54:24.095Z,54.60
2023-02-19T00:56:51.487Z,56.00
2023-02-19T00:59:20.800Z,53.60
2023-02-19T01:01:49.103Z,58.60
2023-02-19T01:04:17.445Z,57.40
2023-02-19T01:06:44.306Z,49.90
2023-02-19T01:09:13.194Z,56.20
2023-02-19T01:11:41.339Z,55.60
2023-02-19T01:14:09.203Z,56.20
2023-02-19T01:16:35.959Z,56.90
2023-02-19T01:19:05.823Z,51.60
2023-02-19T01:21:32.711Z,56.00
2023-02-19T01:23:59.918Z,53.30
2023-02-19T01:26:30.552Z,54.10
2023-02-19T01:28:59.388Z,56.10
2023-02-19T01:31:27.695Z,52.40
2023-02-19T01:34:00.649Z,53.90
2023-02-19T01:36:31.172Z,51.50
2023-02-19T01:39:03.253Z,50.80
2023-02-19T01:41:31.226Z,52.80
2023-02-19T01:44:03.513Z,50.80
2023-02-19T01:46:35.923Z,52.00
2023-02-19T01:49:13.340Z,51.70
2023-02-19T01:51:48.726Z,49.20
2023-02-19T01:54:19.105Z,55.10
2023-02-19T01:56:48.310Z,53.70
2023-02-19T01:59:18.610Z,47.80
2023-02-19T02:01:54.706Z,51.30
2023-02-19T02:04:24.319Z,49.80
2023-02-19T02:06:56.855Z,48.70
2023-02-19T02:09:45.755Z,46.30
2023-02-19T02:12:12.751Z,46.10
2023-02-19T02:14:47.564Z,46.60
2023-02-19T02:17:14.467Z,42.30
2023-02-19T02:20:14.490Z,44.50
2023-02-19T02:23:00.187Z,43.60
2023-02-19T02:25:57.508Z,44.90
2023-02-19T02:29:24.629Z,41.80
2023-02-19T02:32:06.943Z,41.50
2023-02-19T02:34:41.338Z,40.30
2023-02-19T02:37:09.716Z,43.60
2023-02-19T02:39:41.816Z,46.80
2023-02-19T02:42:27.473Z,42.60
2023-02-19T02:45:36.045Z,42.80
2023-02-19T02:48:29.901Z,39.90
2023-02-19T02:51:10.465Z,40.30
2023-02-19T02:54:10.371Z,41.00
2023-02-19T02:56:41.088Z,39.50
2023-02-19T02:59:10.466Z,37.90
2023-02-19T03:02:04.584Z,36.10
2023-02-19T03:05:05.401Z,38.70
2023-02-19T03:07:41.661Z,37.50
2023-02-19T03:10:15.643Z,38.60
2023-02-19T03:13:03.644Z,37.00
2023-02-19T03:15:55.327Z,36.80
2023-02-19T03:18:43.582Z,30.00
2023-02-19T03:21:11.902Z,30.60
2023-02-19T03:23:59.486Z,31.20
2023-02-19T03:26:27.764Z,29.00
2023-02-19T03:29:15.941Z,31.30
2023-02-19T03:31:47.561Z,31.50
2023-02-19T03:34:26.201Z,30.50
2023-02-19T03:37:11.418Z,29.30
2023-02-19T03:39:43.854Z,28.60
2023-02-19T03:42:32.281Z,26.90
2023-02-19T03:44:59.648Z,24.50
2023-02-19T03:47:52.561Z,28.40
2023-02-19T03:50:27.422Z,25.00
2023-02-19T03:53:35.112Z,28.90
2023-02-19T03:56:15.765Z,27.80
2023-02-19T03:59:02.771Z,27.90
2023-02-19T04:01:43.819Z,25.80
2023-02-19T04:04:27.205Z,29.30
2023-02-19T04:07:06.090Z,28.60
2023-02-19T04:09:43.822Z,31.30
2023-02-19T04:12:18.287Z,31.50
2023-02-19T04:14:54.363Z,29.20
2023-02-19T04:17:26.951Z,28.20
2023-02-19T04:19:57.287Z,31.10
2023-02-19T04:22:24.959Z,25.70
2023-02-19T04:24:55.856Z,29.10
2023-02-19T04:27:23.018Z,30.70
2023-02-19T04:29:49.781Z,31.70
2023-02-19T04:32:16.831Z,26.80
2023-02-19T04:34:44.096Z,29.40
2023-02-19T04:37:18.844Z,31.50
2023-02-19T04:39:54.517Z,30.30
2023-02-19T04:42:30.821Z,27.30
2023-02-19T04:45:00.165Z,32.30
2023-02-19T04:47:28.497Z,32.90
2023-02-19T04:50:00.113Z,34.00
2023-02-19T04:52:36.635Z,31.60
2023-02-19T04:55:03.658Z,39.50
2023-02-19T04:57:31.766Z,32.40
2023-02-19T04:59:58.692Z,34.60
2023-02-19T05:02:25.639Z,34.30
2023-02-19T05:04:53.832Z,27.30
2023-02-19T05:07:20.782Z,30.50
2023-02-19T05:09:51.996Z,33.10
2023-02-19T05:12:20.237Z,29.40
2023-02-19T05:14:47.055Z,33.80
2023-02-19T05:17:14.105Z,32.60
2023-02-19T05:19:43.536Z,31.50
2023-02-19T05:22:10.492Z,30.60
2023-02-19T05:24:37.419Z,32.10
2023-02-19T05:27:04.193Z,33.10
2023-02-19T05:29:31.738Z,33.00
2023-02-19T05:31:58.811Z,34.40
2023-02-19T05:34:25.738Z,31.30
2023-02-19T05:36:52.504Z,29.30
2023-02-19T05:39:19.245Z,30.70
2023-02-19T05:41:46.072Z,30.50
2023-02-19T05:44:12.882Z,31.70
2023-02-19T05:46:39.715Z,26.80
2023-02-19T05:49:06.666Z,33.90
2023-02-19T05:51:33.594Z,27.70
2023-02-19T05:54:00.429Z,28.20
2023-02-19T05:56:38.410Z,26.90
2023-02-19T05:59:19.210Z,23.00
2023-02-19T06:01:47.463Z,26.20
2023-02-19T06:04:15.194Z,25.30
2023-02-19T06:06:42.734Z,24.90
2023-02-19T06:09:12.967Z,28.50
2023-02-19T06:11:40.229Z,28.20
2023-02-19T06:14:07.098Z,25.40
2023-02-19T06:16:39.515Z,27.60
2023-02-19T06:19:06.382Z,27.70
2023-02-19T06:21:33.446Z,23.10
2023-02-19T06:24:05.515Z,31.40
2023-02-19T06:26:36.267Z,31.20
2023-02-19T06:29:08.066Z,29.50
2023-02-19T06:31:34.966Z,28.40
2023-02-19T06:34:05.537Z,27.40
2023-02-19T06:36:39.103Z,28.90
2023-02-19T06:39:06.675Z,25.90
2023-02-19T06:41:33.566Z,27.40
2023-02-19T06:44:01.796Z,27.00
2023-02-19T06:46:30.248Z,27.10
2023-02-19T06:48:59.124Z,24.60
2023-02-19T06:51:29.169Z,28.00
2023-02-19T06:53:58.309Z,29.00
2023-02-19T06:56:32.073Z,25.60
2023-02-19T06:59:03.886Z,28.40
2023-02-19T07:01:41.240Z,27.10
2023-02-19T07:04:31.653Z,31.10
2023-02-19T07:07:04.755Z,31.70
2023-02-19T07:09:37.203Z,31.30
2023-02-19T07:12:09.598Z,32.10
2023-02-19T07:14:36.474Z,37.60
2023-02-19T07:17:03.204Z,32.40
2023-02-19T07:19:32.174Z,35.20
2023-02-19T07:22:02.312Z,41.80
2023-02-19T07:24:30.524Z,36.40
2023-02-19T07:26:57.393Z,38.10
2023-02-19T07:29:25.634Z,39.60
2023-02-19T07:31:57.606Z,39.40
2023-02-19T07:34:27.259Z,41.00
2023-02-19T07:36:55.288Z,41.00
2023-02-19T07:39:22.123Z,39.60
2023-02-19T07:41:48.812Z,36.90
2023-02-19T07:44:33.880Z,40.60
2023-02-19T07:47:00.703Z,39.40
2023-02-19T07:49:32.673Z,39.70
2023-02-19T07:52:07.100Z,40.10
2023-02-19T07:54:33.892Z,39.80
2023-02-19T07:57:01.214Z,40.20
2023-02-19T07:59:30.374Z,41.60
2023-02-19T08:02:17.863Z,39.40
2023-02-19T08:05:04.942Z,41.20
2023-02-19T08:07:38.464Z,41.90
2023-02-19T08:10:24.329Z,42.10
2023-02-19T08:13:23.647Z,40.70
2023-02-19T08:16:24.090Z,40.20
2023-02-19T08:18:57.464Z,37.50
2023-02-19T08:21:24.183Z,42.30
2023-02-19T08:23:55.640Z,35.70
2023-02-19T08:26:23.695Z,37.10
2023-02-19T08:28:50.484Z,35.90
2023-02-19T08:31:17.289Z,36.40
2023-02-19T08:33:45.316Z,36.90
2023-02-19T08:36:17.117Z,37.70
2023-02-19T08:38:47.755Z,33.50
2023-02-19T08:41:17.266Z,35.70
2023-02-19T08:43:46.503Z,37.20
2023-02-19T08:46:13.592Z,33.90
2023-02-19T08:48:44.478Z,34.20
2023-02-19T08:51:19.085Z,35.40
2023-02-19T08:53:47.670Z,41.40
2023-02-19T08:56:16.848Z,39.80
2023-02-19T08:58:48.309Z,37.20
2023-02-19T09:01:23.308Z,38.30
2023-02-19T09:03:49.998Z,36.40
2023-02-19T09:06:20.628Z,38.10
2023-02-19T09:08:51.637Z,37.90
2023-02-19T09:11:23.861Z,35.70
2023-02-19T09:13:59.725Z,38.60
2023-02-19T09:16:28.824Z,37.70
2023-02-19T09:21:45.846Z,36.70
2023-02-19T09:24:20.813Z,36.00
2023-02-19T09:26:58.568Z,36.50
2023-02-19T09:29:42.441Z,30.90
2023-02-19T09:32:14.349Z,33.00
2023-02-19T09:34:54.992Z,32.50
2023-02-19T09:37:34.073Z,33.20
2023-02-19T09:40:01.105Z,32.10
2023-02-19T09:42:41.979Z,29.10
2023-02-19T09:45:19.571Z,29.10
2023-02-19T09:47:47.332Z,29.10
2023-02-19T09:50:19.142Z,30.20
2023-02-19T09:52:54.010Z,29.90
2023-02-19T09:55:44.409Z,30.80
2023-02-19T09:58:29.406Z,33.70
2023-02-19T10:01:10.553Z,32.70
2023-02-19T10:03:40.901Z,36.50
2023-02-19T10:06:23.427Z,33.30
2023-02-19T10:08:57.308Z,34.20
2023-02-19T10:11:26.738Z,31.20
2023-02-19T10:14:16.413Z,33.90
2023-02-19T10:16:49.856Z,33.90
2023-02-19T10:19:20.110Z,33.20
2023-02-19T10:21:47.054Z,30.40
2023-02-19T10:24:23.822Z,28.10
2023-02-19T10:26:51.116Z,32.10
2023-02-19T10:29:21.415Z,30.40
2023-02-19T10:31:48.396Z,31.50
2023-02-19T10:34:23.076Z,30.40
2023-02-19T10:36:56.096Z,31.30
2023-02-19T10:39:46.580Z,28.90
2023-02-19T10:42:26.299Z,32.00
2023-02-19T10:44:58.310Z,32.60
2023-02-19T10:47:26.771Z,31.50
2023-02-19T10:50:02.047Z,30.10
2023-02-19T10:52:41.861Z,33.70
2023-02-19T10:55:25.729Z,33.40
2023-02-19T10:57:55.074Z,30.90
2023-02-19T11:00:36.882Z,32.60
2023-02-19T11:03:34.170Z,28.40
2023-02-19T11:06:15.250Z,28.80
2023-02-19T11:08:54.253Z,31.30
2023-02-19T11:11:36.770Z,32.20
2023-02-19T11:14:23.020Z,31.40
2023-02-19T11:16:57.105Z,29.30
2023-02-19T11:19:44.851Z,30.10
2023-02-19T11:22:41.679Z,31.30
2023-02-19T11:25:17.177Z,28.80
2023-02-19T11:28:18.218Z,31.00
2023-02-19T11:30:48.830Z,26.10
2023-02-19T11:33:33.513Z,29.00
2023-02-19T11:39:47.526Z,31.30
2023-02-19T11:42:35.310Z,28.70
2023-02-19T11:45:21.428Z,27.40
2023-02-19T11:48:34.776Z,25.90
2023-02-19T11:52:05.160Z,25.30
2023-02-19T11:54:39.874Z,23.80
2023-02-19T11:57:14.119Z,25.50
2023-02-19T12:00:27.042Z,24.20
2023-02-19T12:03:33.517Z,25.10
2023-02-19T12:06:18.646Z,26.90
2023-02-19T12:08:45.525Z,25.20
2023-02-19T12:11:27.479Z,27.50
2023-02-19T12:14:32.647Z,26.10
2023-02-19T12:17:31.789Z,23.30
2023-02-19T12:20:21.900Z,18.30
2023-02-19T12:23:04.983Z,14.40
2023-02-19T12:26:14.168Z,15.00
2023-02-19T12:29:21.956Z,14.00
2023-02-19T12:32:26.584Z,14.60
2023-02-19T12:35:05.364Z,14.10
2023-02-19T12:37:49.502Z,11.40
2023-02-19T12:40:33.775Z,12.10
2023-02-19T12:43:20.949Z,11.40
2023-02-19T12:46:15.391Z,10.30
2023-02-19T12:48:59.894Z,8.70
2023-02-19T12:51:43.845Z,9.80
2023-02-19T12:54:30.156Z,11.00
2023-02-19T12:57:23.923Z,9.00
2023-02-19T13:00:09.240Z,9.60
2023-02-19T13:02:51.436Z,11.70
2023-02-19T13:06:00.566Z,9.00
2023-02-19T13:09:07.374Z,9.10
2023-02-19T13:11:43.077Z,10.50
2023-02-19T13:14:41.248Z,12.40
2023-02-19T13:17:26.329Z,11.50
2023-02-19T13:20:02.014Z,14.70
2023-02-19T13:22:52.884Z,14.10
2023-02-19T13:25:21.321Z,14.20
2023-02-19T13:28:32.728Z,12.90
2023-02-19T13:31:12.107Z,14.50
2023-02-19T13:34:02.252Z,11.50
2023-02-19T13:36:38.640Z,12.50
2023-02-19T13:39:07.441Z,13.60
2023-02-19T13:41:48.528Z,14.50
2023-02-19T13:44:23.718Z,17.30
2023-02-19T13:46:51.089Z,15.50
2023-02-19T13:49:31.025Z,18.70
2023-02-19T13:52:01.659Z,17.80
2023-02-19T13:54:39.563Z,18.30
2023-02-19T13:57:17.772Z,17.00
2023-02-19T13:59:47.765Z,13.70
2023-02-19T14:02:20.759Z,13.80
2023-02-19T14:05:01.635Z,14.90
2023-02-19T14:07:36.735Z,15.20
2023-02-19T14:10:14.285Z,16.20
2023-02-19T14:12:53.245Z,15.80
2023-02-19T14:18:42.243Z,13.60
2023-02-19T14:21:37.790Z,13.80
2023-02-19T14:24:10.595Z,14.40
2023-02-19T14:26:39.047Z,17.30
2023-02-19T14:29:17.050Z,17.00
2023-02-19T14:31:47.603Z,14.50
2023-02-19T14:34:26.572Z,14.20
2023-02-19T14:37:01.971Z,17.60
2023-02-19T14:39:32.972Z,14.70
2023-02-19T14:42:04.375Z,18.30
2023-02-19T14:45:04.888Z,15.20
2023-02-19T14:47:43.216Z,16.00
2023-02-19T14:50:21.072Z,17.00
2023-02-19T14:53:14.772Z,16.70
2023-02-19T14:55:59.331Z,15.10
2023-02-19T14:58:38.609Z,17.40
2023-02-19T15:01:30.289Z,19.10
2023-02-19T15:04:01.804Z,19.80
2023-02-19T15:06:31.689Z,19.90
2023-02-19T15:09:10.727Z,20.30
2023-02-19T15:11:51.960Z,22.50
2023-02-19T15:14:23.221Z,18.60
2023-02-19T15:17:02.537Z,21.10
2023-02-19T15:19:34.498Z,21.90
2023-02-19T15:22:06.661Z,21.30
2023-02-19T15:24:36.923Z,23.00
2023-02-19T15:27:29.165Z,22.70
2023-02-19T15:29:56.103Z,27.80
2023-02-19T15:33:09.189Z,15.70
2023-02-19T15:40:15.936Z,3.10
2023-02-19T15:42:53.061Z,5.60
2023-02-19T15:45:54.120Z,5.80
2023-02-19T15:48:42.541Z,4.90
2023-02-19T15:51:18.598Z,5.80
2023-02-19T15:53:52.892Z,8.10
2023-02-19T15:56:48.924Z,4.30
2023-02-19T15:59:48.364Z,8.50
2023-02-19T16:02:52.919Z,18.20
2023-02-19T16:05:29.691Z,16.40
2023-02-19T16:08:31.057Z,19.70
2023-02-19T16:11:04.876Z,23.90
2023-02-19T16:13:34.499Z,27.80
2023-02-19T16:16:15.335Z,29.60
2023-02-19T16:18:47.167Z,28.90
2023-02-19T16:21:28.080Z,32.60
2023-02-19T16:25:04.598Z,31.90
2023-02-19T16:27:07.381Z,31.50
2023-02-19T16:30:22.829Z,25.20
2023-02-19T16:33:29.835Z,24.50
2023-02-19T16:36:20.267Z,21.40
2023-02-19T16:39:07.938Z,18.00
2023-02-19T16:43:31.087Z,19.70
2023-02-19T16:45:58.930Z,11.60
2023-02-19T16:48:29.307Z,10.10
2023-02-19T16:52:11.661Z,8.00
2023-02-19T16:54:54.553Z,5.60
2023-02-19T16:57:39.892Z,4.80
2023-02-19T17:01:50.475Z,2.50
2023-02-19T17:04:19.867Z,5.50
2023-02-19T17:06:47.759Z,4.30
2023-02-19T17:09:27.506Z,4.00
2023-02-19T17:12:15.219Z,2.70
2023-02-19T17:14:45.564Z,5.50
2023-02-19T17:31:04.778Z,3.40
2023-02-19T17:37:39.559Z,4.10
2023-02-19T17:45:11.640Z,3.10
2023-02-19T17:53:02.208Z,3.60
2023-02-19T17:57:28.544Z,3.90
2023-02-19T18:01:09.084Z,5.30
2023-02-19T18:03:57.396Z,3.10
2023-02-19T18:22:43.098Z,2.90
2023-02-19T18:25:19.850Z,4.80
2023-02-19T18:32:45.152Z,3.60
2023-02-19T18:36:57.151Z,2.10
2023-02-19T18:44:47.442Z,3.30
2023-02-19T18:51:31.836Z,5.90
2023-02-19T19:16:39.699Z,4.90
2023-02-19T19:32:18.995Z,6.30
2023-02-19T19:35:00.386Z,10.00
2023-02-19T19:37:44.166Z,4.00
2023-02-19T19:40:19.923Z,4.70
2023-02-19T19:43:13.897Z,5.20
2023-02-19T19:56:46.755Z,6.70
2023-02-19T20:05:02.717Z,3.10
2023-02-19T20:11:54.497Z,8.10
2023-02-19T20:12:18.210Z,4.40
2023-02-19T20:14:52.340Z,8.00
2023-02-19T20:17:28.763Z,8.70
2023-02-19T20:19:56.792Z,8.00
2023-02-19T20:24:12.840Z,8.10
2023-02-19T20:25:59.130Z,5.70
2023-02-19T20:31:50.706Z,5.70
2023-02-19T20:34:45.709Z,6.00
2023-02-19T20:44:02.746Z,3.90
2023-02-19T20:48:08.289Z,4.50
2023-02-19T20:50:30.143Z,7.20
2023-02-19T20:53:03.632Z,3.10
2023-02-19T21:01:40.111Z,4.40
2023-02-19T21:03:20.332Z,5.60
2023-02-19T21:05:26.335Z,5.00
2023-02-19T21:09:41.525Z,6.20
2023-02-19T21:12:58.379Z,7.50
2023-02-19T21:18:22.636Z,6.40
2023-02-19T21:21:20.589Z,6.50
2023-02-19T21:24:17.024Z,11.20
2023-02-19T21:26:45.287Z,6.60
2023-02-19T21:32:25.432Z,5.70
2023-02-19T21:34:55.138Z,9.30
2023-02-19T21:37:24.419Z,8.20
2023-02-19T21:39:51.899Z,8.60
2023-02-19T21:42:31.743Z,8.60
2023-02-19T21:45:00.022Z,8.80
2023-02-19T21:47:28.507Z,8.70
2023-02-19T21:49:57.547Z,10.40
2023-02-19T21:52:26.735Z,10.70
2023-02-19T21:54:54.692Z,12.30
2023-02-19T21:57:30.993Z,10.10
2023-02-19T22:00:09.641Z,11.70
2023-02-19T22:03:03.528Z,8.40
2023-02-19T22:05:30.527Z,12.00
2023-02-19T22:08:28.877Z,8.50
2023-02-19T22:11:00.461Z,11.30
2023-02-19T22:13:32.128Z,9.70
2023-02-19T22:15:59.103Z,10.90
2023-02-19T22:18:33.071Z,10.50
2023-02-19T22:21:01.595Z,10.80
2023-02-19T22:23:30.106Z,11.50
2023-02-19T22:26:00.156Z,11.80
2023-02-19T22:28:27.212Z,15.70
2023-02-19T22:30:55.493Z,11.20
2023-02-19T22:33:29.813Z,12.70
2023-02-19T22:36:09.813Z,11.30
2023-02-19T22:38:42.412Z,12.90
2023-02-19T22:41:09.899Z,10.30
2023-02-19T22:43:36.994Z,12.70
2023-02-19T22:46:18.028Z,10.60
2023-02-19T22:48:47.895Z,9.50
2023-02-19T22:51:23.149Z,9.40
2023-02-19T22:54:13.401Z,9.80
2023-02-19T22:56:58.480Z,12.30
2023-02-19T22:59:59.516Z,9.20
2023-02-19T23:02:29.208Z,9.40
2023-02-19T23:04:56.037Z,10.00
2023-02-19T23:07:25.173Z,10.20
2023-02-19T23:09:54.834Z,9.20
2023-02-19T23:12:28.189Z,9.50
2023-02-19T23:15:16.381Z,10.50
2023-02-19T23:17:44.908Z,8.80
2023-02-19T23:20:15.520Z,8.80
2023-02-19T23:22:58.776Z,7.90
2023-02-19T23:25:29.641Z,7.90
2023-02-19T23:32:27.340Z,7.50
2023-02-19T23:34:58.491Z,12.80
2023-02-19T23:38:00.258Z,9.50
2023-02-19T23:40:30.955Z,7.50
2023-02-19T23:43:06.803Z,6.60
2023-02-19T23:45:40.050Z,7.60
2023-02-19T23:48:07.089Z,7.50
2023-02-19T23:50:33.965Z,7.00
2023-02-19T23:53:09.772Z,8.60
2023-02-19T23:55:36.748Z,6.60
2023-02-19T23:58:03.757Z,7.80
